Flight Track Log - Related Links

Times and Time Zones

All times are in EDT time to prevent confusion due to time zone crossing. See the N544LM flight status page for this flight to view local times or setup timezone preferences in your user account.

Time Position Orientation Groundspeed Altitude Reporting Facility
EDT Latitude Longitude Course Direction KTS MPH feet Rate Location/Type
Wed 08:29:15 PM 61.1768 -150.2796 167° South  Level Estimated
Wed 08:30:35 PM 61.1500 -150.2667 270° West 250 288 6,700  Level Anchorage Center
Wed 08:31:35 PM 61.1500 -150.4167 270° West 280 322 10,500 3,322 Climbing Anchorage Center
Wed 08:32:36 PM 61.1500 -150.6167 270° West 340 391 13,400 3,639 Climbing Anchorage Center
Wed 08:33:37 PM 61.1500 -150.8167 270° West 330 380 17,900 3,669 Climbing Anchorage Center
Wed 08:34:37 PM 61.1500 -151.0000 270° West 350 403 20,800 2,600 Climbing Anchorage Center
Wed 08:35:37 PM 61.1500 -151.2333 270° West 390 449 23,100 2,479 Climbing Anchorage Center
Wed 08:36:38 PM 61.1500 -151.4500 270° West 390 449 25,800 2,380 Climbing Anchorage Center
Wed 08:37:38 PM 61.1500 -151.6833 270° West 400 460 27,900 2,100 Climbing Anchorage Center
Wed 08:38:38 PM 61.1500 -151.9167 270° West 420 483 30,000 1,600 Climbing Anchorage Center
Wed 08:39:38 PM 61.1500 -152.1667 270° West 430 495 31,100 1,339 Climbing Anchorage Center
Wed 08:40:39 PM 61.1500 -152.4167 270° West 430 495 32,700 1,339 Climbing Anchorage Center
Wed 08:41:39 PM 61.1500 -152.6500 270° West 420 483 33,800 992 Climbing Anchorage Center
Wed 08:42:40 PM 61.1500 -152.9000 270° West 420 483 34,700 793 Climbing Anchorage Center
Wed 08:43:40 PM 61.1500 -153.1500 270° West 420 483 35,400 650 Climbing Anchorage Center
Wed 08:44:40 PM 61.1500 -153.3833 270° West 420 483 36,000 298 Climbing Anchorage Center
Wed 08:45:41 PM 61.1500 -153.6333 262° West 430 495 36,000  Level Anchorage Center
Wed 08:46:41 PM 61.1333 -153.8833 270° West 430 495 36,000  Level Anchorage Center
Wed 08:47:41 PM 61.1333 -154.1333 270° West 430 495 36,000  Level Anchorage Center
Wed 08:48:42 PM 61.1333 -154.4000 262° West 440 506 36,000  Level Anchorage Center
Wed 08:49:42 PM 61.1167 -154.6500 270° West 450 518 36,000  Level Anchorage Center
Wed 08:50:42 PM 61.1167 -154.9000 270° West 440 506 36,000  Level Anchorage Center
Wed 08:51:43 PM 61.1167 -155.1667 262° West 440 506 36,000  Level Anchorage Center
Wed 08:52:43 PM 61.1000 -155.4167 270° West 450 518 36,000  Level Anchorage Center
Wed 08:53:43 PM 61.1000 -155.6667 264° West 430 495 36,000  Level Anchorage Center
Wed 08:54:44 PM 61.0833 -155.9833 270° West 440 506 36,000  Level Anchorage Center
Wed 08:55:44 PM 61.0833 -156.2000 263° West 440 506 36,000  Level Anchorage Center
Wed 08:56:45 PM 61.0667 -156.4667 270° West 440 506 36,000  Level Anchorage Center
Wed 08:57:45 PM 61.0667 -156.7167 262° West 440 506 36,000  Level Anchorage Center
Wed 08:58:45 PM 61.0500 -156.9667 270° West 440 506 36,000  Level Anchorage Center
Wed 08:59:46 PM 61.0500 -157.2167 263° West 440 506 36,000  Level Anchorage Center
Wed 09:00:46 PM 61.0333 -157.4833 262° West 440 506 36,000  Level Anchorage Center
Wed 09:01:46 PM 61.0167 -157.7333 270° West 440 506 36,000  Level Anchorage Center
Wed 09:02:47 PM 61.0167 -157.9833 262° West 440 506 36,000  Level Anchorage Center
Wed 09:03:47 PM 61.0000 -158.2333 262° West 440 506 36,000 -200 Level Anchorage Center
Wed 09:04:47 PM 60.9833 -158.4833 262° West 430 495 35,600 -1,785 Descending Anchorage Center
Wed 09:05:48 PM 60.9667 -158.7167 270° West 420 483 32,400 -3,372 Descending Anchorage Center
Wed 09:06:48 PM 60.9667 -158.9667 263° West 430 495 28,800 -3,250 Descending Anchorage Center
Wed 09:07:48 PM 60.9500 -159.2333 262° West 440 506 25,900 -2,777 Descending Anchorage Center
Wed 09:08:49 PM 60.9333 -159.4667 262° West 430 495 23,200 -2,628 Descending Anchorage Center
Wed 09:09:49 PM 60.9167 -159.7167 262° West 430 495 20,600 -2,529 Descending Anchorage Center
Wed 09:10:50 PM 60.9000 -159.9500 263° West 410 472 18,100 -2,380 Descending Anchorage Center
Wed 09:11:50 PM 60.8833 -160.2333 260° West 390 449 15,800 -1,950 Descending Anchorage Center
Wed 09:12:50 PM 60.8667 -160.4333 257° West 340 391 14,200 -1,686 Descending Anchorage Center
Wed 09:13:51 PM 60.8500 -160.5833 270° West 330 380 12,400 -1,983 Descending Anchorage Center
Wed 09:14:51 PM 60.8500 -160.7833 270° West 310 357 10,200 -2,100 Descending Anchorage Center
Wed 09:15:51 PM 60.8500 -160.9333 246° West 260 299 8,200 -1,934 Descending Anchorage Center
Wed 09:16:52 PM 60.8167 -161.0833 270° West 260 299 6,300 -1,736 Descending Anchorage Center
Wed 09:17:52 PM 60.8167 -161.2333 256° West 260 299 4,700 -1,400 Descending Anchorage Center
Wed 09:18:52 PM 60.8000 -161.3667 262° West 250 288 3,500 -1,200 Descending Anchorage Center
Wed 09:28:15 PM 60.7667 -161.8333 351° North  Level FlightAware Approximate
Wed 09:29:15 PM 60.8666 -161.8658 171° South  Level Estimated
Wed 09:30:15 PM 60.7667 -161.8333 351° North  Level FlightAware Approximate
Wed 09:31:15 PM 60.8666 -161.8658 351° North  Level Estimated

Login

Don't have an account? Register now (free) for customized features, flight alerts, and more!